sensor_id;sensor_type;location;lat;lon;timestamp;P1;durP1;ratioP1;P2;durP2;ratioP2
72584;SDS011;60618;40.084;32.908;2022-07-23T00:00:17;3.35;;;1.08;;
72584;SDS011;60618;40.084;32.908;2022-07-23T00:02:44;3.47;;;1.20;;
72584;SDS011;60618;40.084;32.908;2022-07-23T00:05:12;3.42;;;1.20;;
72584;SDS011;60618;40.084;32.908;2022-07-23T00:07:39;3.67;;;1.20;;
72584;SDS011;60618;40.084;32.908;2022-07-23T00:10:06;4.18;;;1.20;;
72584;SDS011;60618;40.084;32.908;2022-07-23T00:12:34;3.28;;;1.13;;
72584;SDS011;60618;40.084;32.908;2022-07-23T00:15:01;3.20;;;1.00;;
72584;SDS011;60618;40.084;32.908;2022-07-23T00:17:30;3.30;;;0.90;;
72584;SDS011;60618;40.084;32.908;2022-07-23T00:19:57;3.37;;;0.90;;
72584;SDS011;60618;40.084;32.908;2022-07-23T00:22:24;3.00;;;0.90;;
72584;SDS011;60618;40.084;32.908;2022-07-23T00:24:51;2.88;;;0.90;;
72584;SDS011;60618;40.084;32.908;2022-07-23T00:27:38;2.97;;;0.90;;
72584;SDS011;60618;40.084;32.908;2022-07-23T00:30:05;4.88;;;1.30;;
72584;SDS011;60618;40.084;32.908;2022-07-23T00:32:44;3.50;;;1.00;;
72584;SDS011;60618;40.084;32.908;2022-07-23T00:35:22;2.83;;;1.00;;
72584;SDS011;60618;40.084;32.908;2022-07-23T00:37:50;3.45;;;1.23;;
72584;SDS011;60618;40.084;32.908;2022-07-23T00:40:17;3.88;;;1.10;;
72584;SDS011;60618;40.084;32.908;2022-07-23T00:42:44;4.25;;;1.33;;
72584;SDS011;60618;40.084;32.908;2022-07-23T00:45:11;2.90;;;1.07;;
72584;SDS011;60618;40.084;32.908;2022-07-23T00:47:38;3.45;;;1.10;;
72584;SDS011;60618;40.084;32.908;2022-07-23T00:50:06;3.40;;;1.20;;
72584;SDS011;60618;40.084;32.908;2022-07-23T00:52:35;4.53;;;1.20;;
72584;SDS011;60618;40.084;32.908;2022-07-23T00:55:03;3.60;;;1.10;;
72584;SDS011;60618;40.084;32.908;2022-07-23T00:57:31;5.97;;;1.10;;
72584;SDS011;60618;40.084;32.908;2022-07-23T00:59:58;3.95;;;1.00;;
72584;SDS011;60618;40.084;32.908;2022-07-23T01:02:25;3.10;;;1.10;;
72584;SDS011;60618;40.084;32.908;2022-07-23T01:04:53;3.33;;;1.00;;
72584;SDS011;60618;40.084;32.908;2022-07-23T01:07:20;3.50;;;0.93;;
72584;SDS011;60618;40.084;32.908;2022-07-23T01:09:48;3.87;;;1.10;;
72584;SDS011;60618;40.084;32.908;2022-07-23T01:12:15;3.55;;;1.00;;
72584;SDS011;60618;40.084;32.908;2022-07-23T01:14:42;3.13;;;1.10;;
72584;SDS011;60618;40.084;32.908;2022-07-23T01:17:09;3.08;;;1.00;;
72584;SDS011;60618;40.084;32.908;2022-07-23T01:19:36;3.15;;;1.00;;
72584;SDS011;60618;40.084;32.908;2022-07-23T01:22:03;3.33;;;1.10;;
72584;SDS011;60618;40.084;32.908;2022-07-23T01:24:30;3.42;;;1.10;;
72584;SDS011;60618;40.084;32.908;2022-07-23T01:26:57;3.78;;;1.10;;
72584;SDS011;60618;40.084;32.908;2022-07-23T01:29:24;3.50;;;1.10;;
72584;SDS011;60618;40.084;32.908;2022-07-23T01:31:51;3.63;;;1.10;;
72584;SDS011;60618;40.084;32.908;2022-07-23T01:34:18;4.13;;;1.10;;
72584;SDS011;60618;40.084;32.908;2022-07-23T01:36:45;4.05;;;1.00;;
72584;SDS011;60618;40.084;32.908;2022-07-23T01:39:11;2.85;;;1.00;;
72584;SDS011;60618;40.084;32.908;2022-07-23T01:41:39;5.15;;;1.10;;
72584;SDS011;60618;40.084;32.908;2022-07-23T01:44:09;4.18;;;1.02;;
72584;SDS011;60618;40.084;32.908;2022-07-23T01:46:37;4.10;;;1.57;;
72584;SDS011;60618;40.084;32.908;2022-07-23T01:49:05;3.00;;;0.90;;
72584;SDS011;60618;40.084;32.908;2022-07-23T01:51:32;4.07;;;1.00;;
72584;SDS011;60618;40.084;32.908;2022-07-23T01:53:59;3.65;;;1.00;;
72584;SDS011;60618;40.084;32.908;2022-07-23T01:56:26;4.47;;;1.30;;
72584;SDS011;60618;40.084;32.908;2022-07-23T01:58:53;4.37;;;1.10;;
72584;SDS011;60618;40.084;32.908;2022-07-23T02:01:20;3.47;;;0.90;;
72584;SDS011;60618;40.084;32.908;2022-07-23T02:03:46;3.23;;;1.00;;
72584;SDS011;60618;40.084;32.908;2022-07-23T02:06:13;4.45;;;0.90;;
72584;SDS011;60618;40.084;32.908;2022-07-23T02:08:40;3.42;;;1.20;;
72584;SDS011;60618;40.084;32.908;2022-07-23T02:11:07;3.72;;;1.00;;
72584;SDS011;60618;40.084;32.908;2022-07-23T02:13:34;3.20;;;1.00;;
72584;SDS011;60618;40.084;32.908;2022-07-23T02:16:01;4.07;;;1.00;;
72584;SDS011;60618;40.084;32.908;2022-07-23T02:18:28;3.10;;;1.05;;
72584;SDS011;60618;40.084;32.908;2022-07-23T02:20:55;2.88;;;0.90;;
72584;SDS011;60618;40.084;32.908;2022-07-23T02:23:22;3.30;;;1.00;;
72584;SDS011;60618;40.084;32.908;2022-07-23T02:25:49;3.30;;;0.93;;
72584;SDS011;60618;40.084;32.908;2022-07-23T02:28:16;3.80;;;1.00;;
72584;SDS011;60618;40.084;32.908;2022-07-23T02:30:43;3.22;;;1.00;;
72584;SDS011;60618;40.084;32.908;2022-07-23T02:33:09;3.30;;;1.02;;
72584;SDS011;60618;40.084;32.908;2022-07-23T02:35:36;3.35;;;1.00;;
72584;SDS011;60618;40.084;32.908;2022-07-23T02:38:03;3.73;;;1.03;;
72584;SDS011;60618;40.084;32.908;2022-07-23T02:40:30;3.13;;;0.90;;
72584;SDS011;60618;40.084;32.908;2022-07-23T02:42:57;3.55;;;1.02;;
72584;SDS011;60618;40.084;32.908;2022-07-23T02:45:24;4.55;;;1.00;;
72584;SDS011;60618;40.084;32.908;2022-07-23T02:47:51;3.75;;;1.05;;
72584;SDS011;60618;40.084;32.908;2022-07-23T02:50:18;4.10;;;1.30;;
72584;SDS011;60618;40.084;32.908;2022-07-23T02:52:45;3.47;;;1.00;;
72584;SDS011;60618;40.084;32.908;2022-07-23T02:55:12;3.67;;;1.10;;
72584;SDS011;60618;40.084;32.908;2022-07-23T02:57:38;3.40;;;1.10;;
72584;SDS011;60618;40.084;32.908;2022-07-23T03:00:06;3.53;;;1.30;;
72584;SDS011;60618;40.084;32.908;2022-07-23T03:02:33;4.40;;;1.17;;
72584;SDS011;60618;40.084;32.908;2022-07-23T03:05:00;4.13;;;1.08;;
72584;SDS011;60618;40.084;32.908;2022-07-23T03:07:27;3.00;;;1.00;;
72584;SDS011;60618;40.084;32.908;2022-07-23T03:09:54;4.32;;;1.05;;
72584;SDS011;60618;40.084;32.908;2022-07-23T03:12:21;3.28;;;1.10;;
72584;SDS011;60618;40.084;32.908;2022-07-23T03:14:47;3.40;;;0.90;;
72584;SDS011;60618;40.084;32.908;2022-07-23T03:17:14;2.70;;;0.80;;
72584;SDS011;60618;40.084;32.908;2022-07-23T03:19:41;3.35;;;1.02;;
72584;SDS011;60618;40.084;32.908;2022-07-23T03:22:08;2.95;;;1.10;;
72584;SDS011;60618;40.084;32.908;2022-07-23T03:24:35;2.85;;;0.90;;
72584;SDS011;60618;40.084;32.908;2022-07-23T03:27:02;4.00;;;1.10;;
72584;SDS011;60618;40.084;32.908;2022-07-23T03:29:29;3.70;;;1.30;;
72584;SDS011;60618;40.084;32.908;2022-07-23T03:31:56;3.67;;;1.13;;
72584;SDS011;60618;40.084;32.908;2022-07-23T03:34:23;2.72;;;0.93;;
72584;SDS011;60618;40.084;32.908;2022-07-23T03:36:49;4.03;;;1.20;;
72584;SDS011;60618;40.084;32.908;2022-07-23T03:39:16;3.40;;;1.00;;
72584;SDS011;60618;40.084;32.908;2022-07-23T03:41:43;4.25;;;1.27;;
72584;SDS011;60618;40.084;32.908;2022-07-23T03:44:10;3.75;;;1.00;;
72584;SDS011;60618;40.084;32.908;2022-07-23T03:46:37;3.22;;;1.00;;
72584;SDS011;60618;40.084;32.908;2022-07-23T03:49:04;4.57;;;1.13;;
72584;SDS011;60618;40.084;32.908;2022-07-23T03:51:31;3.83;;;1.20;;
72584;SDS011;60618;40.084;32.908;2022-07-23T03:53:58;4.75;;;1.23;;
72584;SDS011;60618;40.084;32.908;2022-07-23T03:56:25;5.47;;;1.10;;
72584;SDS011;60618;40.084;32.908;2022-07-23T03:58:52;3.55;;;1.10;;
72584;SDS011;60618;40.084;32.908;2022-07-23T04:01:19;3.80;;;1.20;;
72584;SDS011;60618;40.084;32.908;2022-07-23T04:03:46;3.53;;;1.00;;
72584;SDS011;60618;40.084;32.908;2022-07-23T04:06:13;5.68;;;1.23;;
72584;SDS011;60618;40.084;32.908;2022-07-23T04:08:40;3.30;;;1.20;;
72584;SDS011;60618;40.084;32.908;2022-07-23T04:11:06;3.03;;;1.00;;
72584;SDS011;60618;40.084;32.908;2022-07-23T04:13:33;3.67;;;1.20;;
72584;SDS011;60618;40.084;32.908;2022-07-23T04:16:00;3.50;;;1.03;;
72584;SDS011;60618;40.084;32.908;2022-07-23T04:18:28;3.95;;;1.20;;
72584;SDS011;60618;40.084;32.908;2022-07-23T04:20:55;3.42;;;1.20;;
72584;SDS011;60618;40.084;32.908;2022-07-23T04:23:21;4.18;;;1.20;;
72584;SDS011;60618;40.084;32.908;2022-07-23T04:25:51;3.88;;;1.30;;
72584;SDS011;60618;40.084;32.908;2022-07-23T04:28:18;4.47;;;1.50;;
72584;SDS011;60618;40.084;32.908;2022-07-23T04:30:45;3.83;;;1.20;;
72584;SDS011;60618;40.084;32.908;2022-07-23T04:33:12;3.58;;;1.38;;
72584;SDS011;60618;40.084;32.908;2022-07-23T04:35:39;4.97;;;1.40;;
72584;SDS011;60618;40.084;32.908;2022-07-23T04:38:06;3.97;;;1.35;;
72584;SDS011;60618;40.084;32.908;2022-07-23T04:40:33;3.20;;;1.20;;
72584;SDS011;60618;40.084;32.908;2022-07-23T04:43:00;5.20;;;1.50;;
72584;SDS011;60618;40.084;32.908;2022-07-23T04:45:27;5.20;;;1.40;;
72584;SDS011;60618;40.084;32.908;2022-07-23T04:47:55;3.72;;;1.48;;
72584;SDS011;60618;40.084;32.908;2022-07-23T04:50:22;3.50;;;1.23;;
72584;SDS011;60618;40.084;32.908;2022-07-23T04:52:49;4.20;;;1.67;;
72584;SDS011;60618;40.084;32.908;2022-07-23T04:55:16;3.40;;;1.30;;
72584;SDS011;60618;40.084;32.908;2022-07-23T04:57:43;5.07;;;1.30;;
72584;SDS011;60618;40.084;32.908;2022-07-23T05:00:10;4.68;;;1.25;;
72584;SDS011;60618;40.084;32.908;2022-07-23T05:02:37;4.05;;;1.42;;
72584;SDS011;60618;40.084;32.908;2022-07-23T05:05:04;3.93;;;1.70;;
72584;SDS011;60618;40.084;32.908;2022-07-23T05:07:31;5.38;;;1.30;;
72584;SDS011;60618;40.084;32.908;2022-07-23T05:09:58;3.83;;;1.20;;
72584;SDS011;60618;40.084;32.908;2022-07-23T05:12:25;5.63;;;1.20;;
72584;SDS011;60618;40.084;32.908;2022-07-23T05:14:52;4.05;;;1.60;;
72584;SDS011;60618;40.084;32.908;2022-07-23T05:17:19;3.83;;;1.20;;
72584;SDS011;60618;40.084;32.908;2022-07-23T05:19:46;4.72;;;1.40;;
72584;SDS011;60618;40.084;32.908;2022-07-23T05:22:13;3.95;;;1.70;;
72584;SDS011;60618;40.084;32.908;2022-07-23T05:24:39;5.07;;;1.58;;
72584;SDS011;60618;40.084;32.908;2022-07-23T05:27:06;4.30;;;1.65;;
72584;SDS011;60618;40.084;32.908;2022-07-23T05:29:34;4.23;;;1.70;;
72584;SDS011;60618;40.084;32.908;2022-07-23T05:32:01;4.43;;;1.50;;
72584;SDS011;60618;40.084;32.908;2022-07-23T05:34:27;4.15;;;1.58;;
72584;SDS011;60618;40.084;32.908;2022-07-23T05:36:55;4.82;;;1.85;;
72584;SDS011;60618;40.084;32.908;2022-07-23T05:39:21;5.35;;;1.92;;
72584;SDS011;60618;40.084;32.908;2022-07-23T05:41:48;4.77;;;1.90;;
72584;SDS011;60618;40.084;32.908;2022-07-23T05:44:15;4.47;;;1.60;;
72584;SDS011;60618;40.084;32.908;2022-07-23T05:46:42;8.50;;;2.00;;
72584;SDS011;60618;40.084;32.908;2022-07-23T05:49:09;4.50;;;1.80;;
72584;SDS011;60618;40.084;32.908;2022-07-23T05:51:36;4.00;;;1.60;;
72584;SDS011;60618;40.084;32.908;2022-07-23T05:54:03;5.57;;;1.83;;
72584;SDS011;60618;40.084;32.908;2022-07-23T05:56:30;4.53;;;1.73;;
72584;SDS011;60618;40.084;32.908;2022-07-23T05:58:56;4.30;;;1.70;;
72584;SDS011;60618;40.084;32.908;2022-07-23T06:01:24;5.25;;;1.80;;
72584;SDS011;60618;40.084;32.908;2022-07-23T06:03:51;7.05;;;2.10;;
72584;SDS011;60618;40.084;32.908;2022-07-23T06:06:18;4.67;;;1.93;;
72584;SDS011;60618;40.084;32.908;2022-07-23T06:08:45;7.32;;;2.10;;
72584;SDS011;60618;40.084;32.908;2022-07-23T06:11:11;6.05;;;2.15;;
72584;SDS011;60618;40.084;32.908;2022-07-23T06:13:38;6.85;;;2.20;;
72584;SDS011;60618;40.084;32.908;2022-07-23T06:16:05;3.90;;;2.05;;
72584;SDS011;60618;40.084;32.908;2022-07-23T06:18:32;4.77;;;2.00;;
72584;SDS011;60618;40.084;32.908;2022-07-23T06:21:00;4.80;;;2.00;;
72584;SDS011;60618;40.084;32.908;2022-07-23T06:23:34;3.78;;;1.80;;
72584;SDS011;60618;40.084;32.908;2022-07-23T06:26:00;3.90;;;1.90;;
72584;SDS011;60618;40.084;32.908;2022-07-23T06:28:27;5.13;;;1.70;;
72584;SDS011;60618;40.084;32.908;2022-07-23T06:30:54;6.23;;;2.00;;
72584;SDS011;60618;40.084;32.908;2022-07-23T06:33:23;3.95;;;1.80;;
72584;SDS011;60618;40.084;32.908;2022-07-23T06:35:49;3.92;;;1.90;;
72584;SDS011;60618;40.084;32.908;2022-07-23T06:38:16;4.80;;;2.10;;
72584;SDS011;60618;40.084;32.908;2022-07-23T06:40:44;5.78;;;2.10;;
72584;SDS011;60618;40.084;32.908;2022-07-23T06:43:11;4.63;;;1.80;;
72584;SDS011;60618;40.084;32.908;2022-07-23T06:45:38;6.00;;;1.90;;
72584;SDS011;60618;40.084;32.908;2022-07-23T06:48:05;4.15;;;2.03;;
72584;SDS011;60618;40.084;32.908;2022-07-23T06:50:32;3.92;;;2.00;;
72584;SDS011;60618;40.084;32.908;2022-07-23T06:52:59;5.50;;;2.00;;
72584;SDS011;60618;40.084;32.908;2022-07-23T06:55:26;4.80;;;1.97;;
72584;SDS011;60618;40.084;32.908;2022-07-23T06:57:53;3.95;;;2.05;;
72584;SDS011;60618;40.084;32.908;2022-07-23T07:00:20;6.13;;;2.22;;
72584;SDS011;60618;40.084;32.908;2022-07-23T07:02:47;5.38;;;2.00;;
72584;SDS011;60618;40.084;32.908;2022-07-23T07:05:14;3.90;;;1.80;;
72584;SDS011;60618;40.084;32.908;2022-07-23T07:07:40;3.80;;;1.80;;
72584;SDS011;60618;40.084;32.908;2022-07-23T07:10:07;4.40;;;1.80;;
72584;SDS011;60618;40.084;32.908;2022-07-23T07:12:41;3.90;;;1.63;;
72584;SDS011;60618;40.084;32.908;2022-07-23T07:15:08;4.80;;;2.00;;
72584;SDS011;60618;40.084;32.908;2022-07-23T07:17:35;5.05;;;2.00;;
72584;SDS011;60618;40.084;32.908;2022-07-23T07:20:02;4.50;;;2.10;;
72584;SDS011;60618;40.084;32.908;2022-07-23T07:22:29;3.78;;;1.60;;
72584;SDS011;60618;40.084;32.908;2022-07-23T07:24:56;4.18;;;1.80;;
72584;SDS011;60618;40.084;32.908;2022-07-23T07:27:23;3.92;;;2.00;;
72584;SDS011;60618;40.084;32.908;2022-07-23T07:29:50;4.85;;;2.00;;
72584;SDS011;60618;40.084;32.908;2022-07-23T07:32:17;4.43;;;2.30;;
72584;SDS011;60618;40.084;32.908;2022-07-23T07:35:04;4.97;;;1.73;;
72584;SDS011;60618;40.084;32.908;2022-07-23T07:37:32;7.70;;;2.10;;
72584;SDS011;60618;40.084;32.908;2022-07-23T07:39:59;5.38;;;2.00;;
72584;SDS011;60618;40.084;32.908;2022-07-23T07:42:26;5.45;;;2.10;;
72584;SDS011;60618;40.084;32.908;2022-07-23T07:44:53;4.03;;;1.70;;
72584;SDS011;60618;40.084;32.908;2022-07-23T07:47:20;5.05;;;2.20;;
72584;SDS011;60618;40.084;32.908;2022-07-23T07:49:47;4.32;;;2.22;;
72584;SDS011;60618;40.084;32.908;2022-07-23T07:52:14;6.63;;;2.20;;
72584;SDS011;60618;40.084;32.908;2022-07-23T07:54:41;8.90;;;2.20;;
72584;SDS011;60618;40.084;32.908;2022-07-23T07:57:08;7.70;;;2.20;;
72584;SDS011;60618;40.084;32.908;2022-07-23T07:59:35;8.77;;;2.40;;
72584;SDS011;60618;40.084;32.908;2022-07-23T08:02:02;4.45;;;2.00;;
72584;SDS011;60618;40.084;32.908;2022-07-23T08:04:29;3.97;;;1.60;;
72584;SDS011;60618;40.084;32.908;2022-07-23T08:06:56;3.75;;;1.73;;
72584;SDS011;60618;40.084;32.908;2022-07-23T08:09:23;8.67;;;2.00;;
72584;SDS011;60618;40.084;32.908;2022-07-23T08:11:49;6.10;;;2.40;;
72584;SDS011;60618;40.084;32.908;2022-07-23T08:14:17;4.25;;;1.73;;
72584;SDS011;60618;40.084;32.908;2022-07-23T08:16:44;4.25;;;1.60;;
72584;SDS011;60618;40.084;32.908;2022-07-23T08:19:31;3.78;;;1.45;;
72584;SDS011;60618;40.084;32.908;2022-07-23T08:21:58;6.20;;;2.00;;
72584;SDS011;60618;40.084;32.908;2022-07-23T08:24:24;3.70;;;1.75;;
72584;SDS011;60618;40.084;32.908;2022-07-23T08:26:51;5.15;;;1.60;;
72584;SDS011;60618;40.084;32.908;2022-07-23T08:29:18;3.90;;;1.60;;
72584;SDS011;60618;40.084;32.908;2022-07-23T08:31:52;3.65;;;1.40;;
72584;SDS011;60618;40.084;32.908;2022-07-23T08:34:19;4.63;;;1.87;;
72584;SDS011;60618;40.084;32.908;2022-07-23T08:36:46;5.80;;;1.80;;
72584;SDS011;60618;40.084;32.908;2022-07-23T08:39:13;3.53;;;1.45;;
72584;SDS011;60618;40.084;32.908;2022-07-23T08:41:39;9.20;;;1.90;;
72584;SDS011;60618;40.084;32.908;2022-07-23T08:44:07;3.85;;;1.48;;
72584;SDS011;60618;40.084;32.908;2022-07-23T08:46:34;3.30;;;1.40;;
72584;SDS011;60618;40.084;32.908;2022-07-23T08:49:08;4.63;;;1.40;;
72584;SDS011;60618;40.084;32.908;2022-07-23T08:51:36;5.88;;;1.50;;
72584;SDS011;60618;40.084;32.908;2022-07-23T08:54:03;4.30;;;1.60;;
72584;SDS011;60618;40.084;32.908;2022-07-23T08:56:31;4.82;;;1.50;;
72584;SDS011;60618;40.084;32.908;2022-07-23T08:58:58;4.43;;;1.40;;
72584;SDS011;60618;40.084;32.908;2022-07-23T09:01:25;3.30;;;1.40;;
72584;SDS011;60618;40.084;32.908;2022-07-23T09:03:52;5.82;;;1.48;;
72584;SDS011;60618;40.084;32.908;2022-07-23T09:06:19;3.25;;;1.40;;
72584;SDS011;60618;40.084;32.908;2022-07-23T09:08:46;3.53;;;1.40;;
72584;SDS011;60618;40.084;32.908;2022-07-23T09:11:15;2.90;;;1.10;;
72584;SDS011;60618;40.084;32.908;2022-07-23T09:16:18;3.95;;;1.38;;
72584;SDS011;60618;40.084;32.908;2022-07-23T09:18:55;7.68;;;1.77;;
72584;SDS011;60618;40.084;32.908;2022-07-23T09:23:54;2.90;;;1.10;;
72584;SDS011;60618;40.084;32.908;2022-07-23T09:26:42;4.82;;;1.42;;
72584;SDS011;60618;40.084;32.908;2022-07-23T09:29:17;4.03;;;1.48;;
72584;SDS011;60618;40.084;32.908;2022-07-23T09:31:50;3.58;;;1.40;;
72584;SDS011;60618;40.084;32.908;2022-07-23T09:36:45;2.90;;;1.10;;
72584;SDS011;60618;40.084;32.908;2022-07-23T09:39:13;6.20;;;1.48;;
72584;SDS011;60618;40.084;32.908;2022-07-23T09:41:42;4.20;;;1.25;;
72584;SDS011;60618;40.084;32.908;2022-07-23T09:44:15;6.07;;;1.70;;
72584;SDS011;60618;40.084;32.908;2022-07-23T09:46:44;6.22;;;1.58;;
72584;SDS011;60618;40.084;32.908;2022-07-23T09:49:19;3.50;;;1.40;;
72584;SDS011;60618;40.084;32.908;2022-07-23T09:51:54;3.08;;;1.10;;
72584;SDS011;60618;40.084;32.908;2022-07-23T09:54:38;4.18;;;1.42;;
72584;SDS011;60618;40.084;32.908;2022-07-23T09:57:06;3.63;;;1.20;;
72584;SDS011;60618;40.084;32.908;2022-07-23T09:59:36;5.40;;;1.38;;
72584;SDS011;60618;40.084;32.908;2022-07-23T10:02:05;3.10;;;1.20;;
72584;SDS011;60618;40.084;32.908;2022-07-23T10:04:33;3.75;;;1.30;;
72584;SDS011;60618;40.084;32.908;2022-07-23T10:07:03;4.57;;;1.30;;
72584;SDS011;60618;40.084;32.908;2022-07-23T10:09:33;3.30;;;1.20;;
72584;SDS011;60618;40.084;32.908;2022-07-23T10:12:05;3.55;;;1.30;;
72584;SDS011;60618;40.084;32.908;2022-07-23T10:14:38;5.00;;;1.40;;
72584;SDS011;60618;40.084;32.908;2022-07-23T10:17:06;5.53;;;1.30;;
72584;SDS011;60618;40.084;32.908;2022-07-23T10:19:33;3.92;;;1.30;;
72584;SDS011;60618;40.084;32.908;2022-07-23T10:22:02;3.70;;;1.50;;
72584;SDS011;60618;40.084;32.908;2022-07-23T10:38:26;3.72;;;1.33;;
72584;SDS011;60618;40.084;32.908;2022-07-23T10:40:58;4.90;;;1.50;;
72584;SDS011;60618;40.084;32.908;2022-07-23T10:43:29;4.05;;;1.10;;
72584;SDS011;60618;40.084;32.908;2022-07-23T10:52:40;4.15;;;1.30;;
72584;SDS011;60618;40.084;32.908;2022-07-23T10:54:55;2.90;;;1.20;;
72584;SDS011;60618;40.084;32.908;2022-07-23T10:57:48;2.90;;;1.20;;
72584;SDS011;60618;40.084;32.908;2022-07-23T11:00:19;2.83;;;0.93;;
72584;SDS011;60618;40.084;32.908;2022-07-23T11:02:49;3.60;;;1.20;;
72584;SDS011;60618;40.084;32.908;2022-07-23T11:05:19;3.90;;;1.20;;
72584;SDS011;60618;40.084;32.908;2022-07-23T11:10:49;3.20;;;1.20;;
72584;SDS011;60618;40.084;32.908;2022-07-23T11:13:37;3.30;;;1.35;;
72584;SDS011;60618;40.084;32.908;2022-07-23T11:16:16;3.20;;;1.20;;
72584;SDS011;60618;40.084;32.908;2022-07-23T11:23:59;5.03;;;1.38;;
72584;SDS011;60618;40.084;32.908;2022-07-23T11:34:43;6.13;;;1.90;;
72584;SDS011;60618;40.084;32.908;2022-07-23T11:37:12;2.92;;;1.30;;
72584;SDS011;60618;40.084;32.908;2022-07-23T11:39:55;5.00;;;1.38;;
72584;SDS011;60618;40.084;32.908;2022-07-23T11:42:22;3.85;;;1.50;;
72584;SDS011;60618;40.084;32.908;2022-07-23T11:44:56;4.78;;;1.73;;
72584;SDS011;60618;40.084;32.908;2022-07-23T11:47:23;3.50;;;1.33;;
72584;SDS011;60618;40.084;32.908;2022-07-23T11:49:53;3.83;;;1.50;;
72584;SDS011;60618;40.084;32.908;2022-07-23T11:52:27;3.55;;;1.50;;
72584;SDS011;60618;40.084;32.908;2022-07-23T11:54:59;4.88;;;1.40;;
72584;SDS011;60618;40.084;32.908;2022-07-23T11:57:32;3.88;;;1.40;;
72584;SDS011;60618;40.084;32.908;2022-07-23T12:00:15;5.77;;;1.60;;
72584;SDS011;60618;40.084;32.908;2022-07-23T12:02:48;3.85;;;1.50;;
72584;SDS011;60618;40.084;32.908;2022-07-23T12:07:49;4.05;;;1.30;;
72584;SDS011;60618;40.084;32.908;2022-07-23T12:11:00;3.92;;;1.40;;
72584;SDS011;60618;40.084;32.908;2022-07-23T12:13:17;5.23;;;1.47;;
72584;SDS011;60618;40.084;32.908;2022-07-23T12:15:46;3.38;;;1.30;;
72584;SDS011;60618;40.084;32.908;2022-07-23T12:18:19;5.50;;;1.30;;
72584;SDS011;60618;40.084;32.908;2022-07-23T12:20:49;3.15;;;1.30;;
72584;SDS011;60618;40.084;32.908;2022-07-23T12:23:23;3.22;;;1.33;;
72584;SDS011;60618;40.084;32.908;2022-07-23T12:25:51;4.00;;;1.60;;
72584;SDS011;60618;40.084;32.908;2022-07-23T12:28:20;8.50;;;1.77;;
72584;SDS011;60618;40.084;32.908;2022-07-23T12:30:52;4.30;;;1.60;;
72584;SDS011;60618;40.084;32.908;2022-07-23T12:33:24;3.42;;;1.50;;
72584;SDS011;60618;40.084;32.908;2022-07-23T12:35:57;3.55;;;1.63;;
72584;SDS011;60618;40.084;32.908;2022-07-23T12:38:27;3.43;;;1.70;;
72584;SDS011;60618;40.084;32.908;2022-07-23T12:41:02;3.30;;;1.40;;
72584;SDS011;60618;40.084;32.908;2022-07-23T12:43:33;3.47;;;1.45;;
72584;SDS011;60618;40.084;32.908;2022-07-23T12:46:06;5.90;;;1.40;;
72584;SDS011;60618;40.084;32.908;2022-07-23T12:51:19;6.40;;;1.57;;
72584;SDS011;60618;40.084;32.908;2022-07-23T12:53:55;4.45;;;1.60;;
72584;SDS011;60618;40.084;32.908;2022-07-23T12:56:28;4.13;;;1.48;;
72584;SDS011;60618;40.084;32.908;2022-07-23T13:01:31;5.15;;;1.38;;
72584;SDS011;60618;40.084;32.908;2022-07-23T13:04:10;4.33;;;1.60;;
72584;SDS011;60618;40.084;32.908;2022-07-23T13:06:49;3.20;;;1.30;;
72584;SDS011;60618;40.084;32.908;2022-07-23T13:09:21;4.47;;;1.65;;
72584;SDS011;60618;40.084;32.908;2022-07-23T13:11:51;4.93;;;1.88;;
72584;SDS011;60618;40.084;32.908;2022-07-23T13:14:22;4.38;;;1.80;;
72584;SDS011;60618;40.084;32.908;2022-07-23T13:16:52;4.50;;;1.60;;
72584;SDS011;60618;40.084;32.908;2022-07-23T13:19:22;3.10;;;1.40;;
72584;SDS011;60618;40.084;32.908;2022-07-23T13:21:50;5.03;;;1.40;;
72584;SDS011;60618;40.084;32.908;2022-07-23T13:24:17;4.20;;;1.55;;
72584;SDS011;60618;40.084;32.908;2022-07-23T13:26:45;4.63;;;1.50;;
72584;SDS011;60618;40.084;32.908;2022-07-23T13:29:13;5.73;;;1.50;;
72584;SDS011;60618;40.084;32.908;2022-07-23T13:31:42;4.43;;;1.60;;
72584;SDS011;60618;40.084;32.908;2022-07-23T13:34:09;4.80;;;1.45;;
72584;SDS011;60618;40.084;32.908;2022-07-23T13:36:36;5.13;;;1.50;;
72584;SDS011;60618;40.084;32.908;2022-07-23T13:39:03;3.60;;;1.67;;
72584;SDS011;60618;40.084;32.908;2022-07-23T13:41:51;4.13;;;1.73;;
72584;SDS011;60618;40.084;32.908;2022-07-23T13:44:18;3.83;;;1.55;;
72584;SDS011;60618;40.084;32.908;2022-07-23T13:47:05;6.57;;;1.70;;
72584;SDS011;60618;40.084;32.908;2022-07-23T13:49:31;3.47;;;1.40;;
72584;SDS011;60618;40.084;32.908;2022-07-23T13:52:01;3.72;;;1.33;;
72584;SDS011;60618;40.084;32.908;2022-07-23T13:54:31;3.43;;;1.47;;
72584;SDS011;60618;40.084;32.908;2022-07-23T13:56:58;4.85;;;1.40;;
72584;SDS011;60618;40.084;32.908;2022-07-23T13:59:25;5.63;;;1.50;;
72584;SDS011;60618;40.084;32.908;2022-07-23T14:01:52;3.30;;;1.30;;
72584;SDS011;60618;40.084;32.908;2022-07-23T14:04:40;3.67;;;1.33;;
72584;SDS011;60618;40.084;32.908;2022-07-23T14:07:08;3.97;;;1.47;;
72584;SDS011;60618;40.084;32.908;2022-07-23T14:09:35;3.65;;;1.48;;
72584;SDS011;60618;40.084;32.908;2022-07-23T14:12:02;4.50;;;1.70;;
72584;SDS011;60618;40.084;32.908;2022-07-23T14:14:30;5.45;;;1.60;;
72584;SDS011;60618;40.084;32.908;2022-07-23T14:16:58;3.17;;;1.50;;
72584;SDS011;60618;40.084;32.908;2022-07-23T14:19:27;4.20;;;1.50;;
72584;SDS011;60618;40.084;32.908;2022-07-23T14:21:56;4.25;;;1.58;;
72584;SDS011;60618;40.084;32.908;2022-07-23T14:24:23;3.28;;;1.40;;
72584;SDS011;60618;40.084;32.908;2022-07-23T14:26:55;4.22;;;1.63;;
72584;SDS011;60618;40.084;32.908;2022-07-23T14:29:22;4.00;;;1.60;;
72584;SDS011;60618;40.084;32.908;2022-07-23T14:31:49;7.17;;;1.80;;
72584;SDS011;60618;40.084;32.908;2022-07-23T14:34:16;6.55;;;1.70;;
72584;SDS011;60618;40.084;32.908;2022-07-23T14:36:49;4.53;;;1.60;;
72584;SDS011;60618;40.084;32.908;2022-07-23T14:39:16;4.97;;;1.63;;
72584;SDS011;60618;40.084;32.908;2022-07-23T14:41:43;3.67;;;1.52;;
72584;SDS011;60618;40.084;32.908;2022-07-23T14:44:10;3.43;;;1.50;;
72584;SDS011;60618;40.084;32.908;2022-07-23T14:46:37;4.85;;;1.40;;
72584;SDS011;60618;40.084;32.908;2022-07-23T14:49:04;3.38;;;1.42;;
72584;SDS011;60618;40.084;32.908;2022-07-23T14:51:33;4.82;;;1.50;;
72584;SDS011;60618;40.084;32.908;2022-07-23T14:54:00;5.18;;;1.50;;
72584;SDS011;60618;40.084;32.908;2022-07-23T14:56:27;7.87;;;1.80;;
72584;SDS011;60618;40.084;32.908;2022-07-23T14:58:54;5.35;;;1.67;;
72584;SDS011;60618;40.084;32.908;2022-07-23T15:01:22;4.57;;;1.40;;
72584;SDS011;60618;40.084;32.908;2022-07-23T15:03:49;4.47;;;1.60;;
72584;SDS011;60618;40.084;32.908;2022-07-23T15:06:16;3.17;;;1.48;;
72584;SDS011;60618;40.084;32.908;2022-07-23T15:08:43;5.63;;;1.50;;
72584;SDS011;60618;40.084;32.908;2022-07-23T15:11:13;4.18;;;1.50;;
72584;SDS011;60618;40.084;32.908;2022-07-23T15:13:40;5.20;;;1.60;;
72584;SDS011;60618;40.084;32.908;2022-07-23T15:16:09;4.60;;;1.70;;
72584;SDS011;60618;40.084;32.908;2022-07-23T15:18:36;5.38;;;1.65;;
72584;SDS011;60618;40.084;32.908;2022-07-23T15:21:03;4.13;;;1.50;;
72584;SDS011;60618;40.084;32.908;2022-07-23T15:23:30;4.65;;;1.55;;
72584;SDS011;60618;40.084;32.908;2022-07-23T15:25:57;3.38;;;1.50;;
72584;SDS011;60618;40.084;32.908;2022-07-23T15:28:24;4.65;;;1.50;;
72584;SDS011;60618;40.084;32.908;2022-07-23T15:30:53;3.50;;;1.40;;
72584;SDS011;60618;40.084;32.908;2022-07-23T15:33:20;3.90;;;1.53;;